Quick Links (Output Below):   Max & Min Temps   /   Climate Reports   /   Zone Forecasts
River Forecasts   /   Forestry Forecasts   /   Aviation Forecasts   /   Radars   /   Features

Terminal Aerodrome Forecast (Jonesboro)

Pick a Site:
Arkadelphia | El Dorado | Fayetteville | Fort Smith | Harrison | Highfill | Hot Springs | Jonesboro
Little Rock | Monticello | Mountain Home | Pine Bluff | Texarkana
 Forecast 

KJBR 311131Z 3112/0112 34006KT P6SM SKC
     FM311500 35015G25KT P6SM BKN050
     FM312100 35012G20KT P6SM SKC
     FM312300 35010KT P6SM SKC
     FM010200 34006KT P6SM SKC=


 Latest METARs (Observations) 
How to Decode METARs
16Z KJBR 311553Z AUTO 35014G23KT 10SM CLR 13/06 A3018 RMK AO2 SLP219
         T01330061
         
15Z KJBR 311453Z AUTO 36010G27KT 10SM CLR 12/07 A3016 RMK AO2 PK WND
         36028/1426 SLP213 T01220067 51028
         
14Z KJBR 311353Z AUTO 35012G21KT 10SM CLR 11/07 A3014 RMK AO2 SLP205
         T01060072
         
13Z KJBR 311253Z AUTO 35009KT 10SM CLR 09/07 A3010 RMK AO2 SLP193
         T00940072
         
12Z KJBR 311153Z AUTO 35006KT 10SM CLR 09/07 A3008 RMK AO2 SLP184
         T00940072 10117 20089 53024
         
11Z KJBR 311053Z AUTO 33007KT 10SM CLR 09/07 A3005 RMK AO2 SLP174
         T00940072
         
10Z KJBR 310953Z AUTO 34004KT 10SM CLR 09/08 A3002 RMK AO2 SLP164
         T00940078
         
09Z KJBR 310853Z AUTO 31005KT 10SM CLR 09/08 A3001 RMK AO2 SLP160
         T00890083 53006
         
08Z KJBR 310753Z AUTO 00000KT 10SM CLR 10/09 A3000 RMK AO2 SLP157
         T01000089
         
07Z KJBR 310653Z AUTO 32005KT 10SM CLR 11/09 A2999 RMK AO2 SLP156
         T01110089
         
***** Today's Observations (Above) *****


Back to Main Page
http://www.srh.noaa.gov/lzk/qfcst.php

USA.gov is the U.S. government's official web portal to all federal, state and local government web resources and services.